sensor_id;sensor_type;location;lat;lon;timestamp;P1;durP1;ratioP1;P2;durP2;ratioP2
20036;SDS011;10179;42.640;23.312;2022-10-16T00:01:23;9.60;;;4.97;;
20036;SDS011;10179;42.640;23.312;2022-10-16T00:03:50;10.50;;;5.30;;
20036;SDS011;10179;42.640;23.312;2022-10-16T00:06:16;7.43;;;5.00;;
20036;SDS011;10179;42.640;23.312;2022-10-16T00:08:43;8.00;;;5.22;;
20036;SDS011;10179;42.640;23.312;2022-10-16T00:11:13;11.98;;;5.35;;
20036;SDS011;10179;42.640;23.312;2022-10-16T00:13:42;7.18;;;4.43;;
20036;SDS011;10179;42.640;23.312;2022-10-16T00:16:09;10.30;;;5.38;;
20036;SDS011;10179;42.640;23.312;2022-10-16T00:18:36;14.98;;;5.53;;
20036;SDS011;10179;42.640;23.312;2022-10-16T00:21:09;10.13;;;5.50;;
20036;SDS011;10179;42.640;23.312;2022-10-16T00:23:39;9.75;;;5.88;;
20036;SDS011;10179;42.640;23.312;2022-10-16T00:26:07;10.13;;;6.32;;
20036;SDS011;10179;42.640;23.312;2022-10-16T00:28:35;11.57;;;6.15;;
20036;SDS011;10179;42.640;23.312;2022-10-16T00:31:05;11.82;;;6.40;;
20036;SDS011;10179;42.640;23.312;2022-10-16T00:33:35;10.90;;;6.45;;
20036;SDS011;10179;42.640;23.312;2022-10-16T00:36:02;11.65;;;6.65;;
20036;SDS011;10179;42.640;23.312;2022-10-16T00:38:28;12.38;;;6.68;;
20036;SDS011;10179;42.640;23.312;2022-10-16T00:40:54;12.02;;;6.30;;
20036;SDS011;10179;42.640;23.312;2022-10-16T00:46:04;11.43;;;5.75;;
20036;SDS011;10179;42.640;23.312;2022-10-16T00:48:36;13.07;;;5.13;;
20036;SDS011;10179;42.640;23.312;2022-10-16T00:51:01;8.40;;;5.30;;
20036;SDS011;10179;42.640;23.312;2022-10-16T00:53:27;10.60;;;4.93;;
20036;SDS011;10179;42.640;23.312;2022-10-16T00:55:53;10.15;;;5.82;;
20036;SDS011;10179;42.640;23.312;2022-10-16T00:58:19;10.50;;;5.03;;
20036;SDS011;10179;42.640;23.312;2022-10-16T01:00:45;11.25;;;5.03;;
20036;SDS011;10179;42.640;23.312;2022-10-16T01:03:27;7.82;;;4.18;;
20036;SDS011;10179;42.640;23.312;2022-10-16T01:11:49;7.97;;;3.90;;
20036;SDS011;10179;42.640;23.312;2022-10-16T01:17:04;7.85;;;4.40;;
20036;SDS011;10179;42.640;23.312;2022-10-16T01:19:50;7.28;;;4.07;;
20036;SDS011;10179;42.640;23.312;2022-10-16T01:22:22;8.77;;;4.40;;
20036;SDS011;10179;42.640;23.312;2022-10-16T01:24:56;8.93;;;4.25;;
20036;SDS011;10179;42.640;23.312;2022-10-16T01:27:27;9.15;;;5.10;;
20036;SDS011;10179;42.640;23.312;2022-10-16T01:32:45;9.30;;;5.63;;
20036;SDS011;10179;42.640;23.312;2022-10-16T01:35:18;8.65;;;4.50;;
20036;SDS011;10179;42.640;23.312;2022-10-16T01:40:36;11.15;;;5.50;;
20036;SDS011;10179;42.640;23.312;2022-10-16T01:43:12;12.27;;;5.72;;
20036;SDS011;10179;42.640;23.312;2022-10-16T01:45:40;12.18;;;6.05;;
20036;SDS011;10179;42.640;23.312;2022-10-16T01:48:09;13.05;;;5.65;;
20036;SDS011;10179;42.640;23.312;2022-10-16T01:50:39;10.07;;;5.85;;
20036;SDS011;10179;42.640;23.312;2022-10-16T01:53:08;10.38;;;5.97;;
20036;SDS011;10179;42.640;23.312;2022-10-16T01:55:38;9.25;;;6.30;;
20036;SDS011;10179;42.640;23.312;2022-10-16T01:58:10;10.75;;;7.72;;
20036;SDS011;10179;42.640;23.312;2022-10-16T02:00:38;9.80;;;6.80;;
20036;SDS011;10179;42.640;23.312;2022-10-16T02:03:06;17.23;;;6.90;;
20036;SDS011;10179;42.640;23.312;2022-10-16T02:05:37;8.15;;;5.50;;
20036;SDS011;10179;42.640;23.312;2022-10-16T02:08:07;8.55;;;4.90;;
20036;SDS011;10179;42.640;23.312;2022-10-16T02:10:34;9.27;;;5.57;;
20036;SDS011;10179;42.640;23.312;2022-10-16T02:13:05;10.15;;;5.80;;
20036;SDS011;10179;42.640;23.312;2022-10-16T02:15:34;9.13;;;5.40;;
20036;SDS011;10179;42.640;23.312;2022-10-16T02:17:59;8.25;;;5.18;;
20036;SDS011;10179;42.640;23.312;2022-10-16T02:20:28;12.90;;;5.20;;
20036;SDS011;10179;42.640;23.312;2022-10-16T02:22:57;8.35;;;5.32;;
20036;SDS011;10179;42.640;23.312;2022-10-16T02:30:41;12.18;;;5.32;;
20036;SDS011;10179;42.640;23.312;2022-10-16T02:33:10;9.48;;;5.65;;
20036;SDS011;10179;42.640;23.312;2022-10-16T02:35:41;9.77;;;5.57;;
20036;SDS011;10179;42.640;23.312;2022-10-16T02:38:09;12.27;;;6.45;;
20036;SDS011;10179;42.640;23.312;2022-10-16T02:40:36;10.43;;;5.43;;
20036;SDS011;10179;42.640;23.312;2022-10-16T02:43:03;11.30;;;5.95;;
20036;SDS011;10179;42.640;23.312;2022-10-16T02:45:29;16.63;;;6.32;;
20036;SDS011;10179;42.640;23.312;2022-10-16T02:47:55;10.50;;;5.55;;
20036;SDS011;10179;42.640;23.312;2022-10-16T02:50:21;10.52;;;6.05;;
20036;SDS011;10179;42.640;23.312;2022-10-16T02:52:47;12.45;;;6.18;;
20036;SDS011;10179;42.640;23.312;2022-10-16T02:55:12;12.80;;;6.35;;
20036;SDS011;10179;42.640;23.312;2022-10-16T02:57:38;15.50;;;6.50;;
20036;SDS011;10179;42.640;23.312;2022-10-16T03:00:05;13.98;;;6.72;;
20036;SDS011;10179;42.640;23.312;2022-10-16T03:02:31;21.52;;;8.75;;
20036;SDS011;10179;42.640;23.312;2022-10-16T03:04:57;13.27;;;7.43;;
20036;SDS011;10179;42.640;23.312;2022-10-16T03:07:22;15.73;;;8.35;;
20036;SDS011;10179;42.640;23.312;2022-10-16T03:09:48;13.80;;;7.72;;
20036;SDS011;10179;42.640;23.312;2022-10-16T03:12:13;14.40;;;7.72;;
20036;SDS011;10179;42.640;23.312;2022-10-16T03:14:38;14.80;;;8.32;;
20036;SDS011;10179;42.640;23.312;2022-10-16T03:17:05;19.92;;;8.30;;
20036;SDS011;10179;42.640;23.312;2022-10-16T03:19:30;17.33;;;8.43;;
20036;SDS011;10179;42.640;23.312;2022-10-16T03:21:55;14.60;;;8.25;;
20036;SDS011;10179;42.640;23.312;2022-10-16T03:24:21;13.63;;;7.68;;
20036;SDS011;10179;42.640;23.312;2022-10-16T03:26:46;18.10;;;8.30;;
20036;SDS011;10179;42.640;23.312;2022-10-16T03:29:11;16.30;;;9.10;;
20036;SDS011;10179;42.640;23.312;2022-10-16T03:31:37;13.90;;;7.93;;
20036;SDS011;10179;42.640;23.312;2022-10-16T03:34:02;13.13;;;7.63;;
20036;SDS011;10179;42.640;23.312;2022-10-16T03:36:28;16.23;;;8.30;;
20036;SDS011;10179;42.640;23.312;2022-10-16T03:38:53;19.95;;;8.38;;
20036;SDS011;10179;42.640;23.312;2022-10-16T03:41:19;14.68;;;8.25;;
20036;SDS011;10179;42.640;23.312;2022-10-16T03:43:44;16.30;;;7.85;;
20036;SDS011;10179;42.640;23.312;2022-10-16T03:46:09;14.95;;;8.45;;
20036;SDS011;10179;42.640;23.312;2022-10-16T03:48:35;15.25;;;8.55;;
20036;SDS011;10179;42.640;23.312;2022-10-16T03:51:00;21.05;;;9.43;;
20036;SDS011;10179;42.640;23.312;2022-10-16T03:53:26;21.75;;;8.75;;
20036;SDS011;10179;42.640;23.312;2022-10-16T03:55:51;15.85;;;8.30;;
20036;SDS011;10179;42.640;23.312;2022-10-16T03:58:16;14.43;;;8.70;;
20036;SDS011;10179;42.640;23.312;2022-10-16T04:00:42;14.45;;;8.05;;
20036;SDS011;10179;42.640;23.312;2022-10-16T04:03:09;14.55;;;8.05;;
20036;SDS011;10179;42.640;23.312;2022-10-16T04:05:35;15.50;;;8.27;;
20036;SDS011;10179;42.640;23.312;2022-10-16T04:08:00;15.50;;;8.50;;
20036;SDS011;10179;42.640;23.312;2022-10-16T04:10:26;18.83;;;8.32;;
20036;SDS011;10179;42.640;23.312;2022-10-16T04:12:51;22.08;;;8.95;;
20036;SDS011;10179;42.640;23.312;2022-10-16T04:15:19;18.58;;;8.98;;
20036;SDS011;10179;42.640;23.312;2022-10-16T04:17:45;16.08;;;8.45;;
20036;SDS011;10179;42.640;23.312;2022-10-16T04:20:10;17.05;;;9.57;;
20036;SDS011;10179;42.640;23.312;2022-10-16T04:22:35;20.38;;;10.10;;
20036;SDS011;10179;42.640;23.312;2022-10-16T04:25:01;18.67;;;9.05;;
20036;SDS011;10179;42.640;23.312;2022-10-16T04:27:26;16.20;;;9.43;;
20036;SDS011;10179;42.640;23.312;2022-10-16T04:29:53;17.08;;;9.07;;
20036;SDS011;10179;42.640;23.312;2022-10-16T04:32:18;20.67;;;10.15;;
20036;SDS011;10179;42.640;23.312;2022-10-16T04:34:44;16.10;;;9.48;;
20036;SDS011;10179;42.640;23.312;2022-10-16T04:37:09;25.05;;;9.63;;
20036;SDS011;10179;42.640;23.312;2022-10-16T04:39:34;19.85;;;10.23;;
20036;SDS011;10179;42.640;23.312;2022-10-16T04:42:00;17.58;;;9.40;;
20036;SDS011;10179;42.640;23.312;2022-10-16T04:44:25;17.92;;;9.68;;
20036;SDS011;10179;42.640;23.312;2022-10-16T04:46:51;15.40;;;10.00;;
20036;SDS011;10179;42.640;23.312;2022-10-16T04:49:16;19.50;;;9.93;;
20036;SDS011;10179;42.640;23.312;2022-10-16T04:51:42;19.52;;;9.35;;
20036;SDS011;10179;42.640;23.312;2022-10-16T04:54:08;17.85;;;8.68;;
20036;SDS011;10179;42.640;23.312;2022-10-16T04:56:34;20.92;;;9.35;;
20036;SDS011;10179;42.640;23.312;2022-10-16T04:59:05;19.30;;;9.80;;
20036;SDS011;10179;42.640;23.312;2022-10-16T05:01:30;16.23;;;9.18;;
20036;SDS011;10179;42.640;23.312;2022-10-16T05:03:56;18.73;;;10.00;;
20036;SDS011;10179;42.640;23.312;2022-10-16T05:06:21;17.23;;;9.45;;
20036;SDS011;10179;42.640;23.312;2022-10-16T05:08:46;19.05;;;9.52;;
20036;SDS011;10179;42.640;23.312;2022-10-16T05:11:12;16.35;;;9.52;;
20036;SDS011;10179;42.640;23.312;2022-10-16T05:13:37;21.90;;;9.93;;
20036;SDS011;10179;42.640;23.312;2022-10-16T05:16:02;17.88;;;9.38;;
20036;SDS011;10179;42.640;23.312;2022-10-16T05:18:28;19.73;;;10.05;;
20036;SDS011;10179;42.640;23.312;2022-10-16T05:20:53;18.23;;;10.15;;
20036;SDS011;10179;42.640;23.312;2022-10-16T05:23:19;17.30;;;10.10;;
20036;SDS011;10179;42.640;23.312;2022-10-16T05:25:51;22.88;;;10.65;;
20036;SDS011;10179;42.640;23.312;2022-10-16T05:28:25;16.17;;;9.63;;
20036;SDS011;10179;42.640;23.312;2022-10-16T05:30:52;88.90;;;31.52;;
20036;SDS011;10179;42.640;23.312;2022-10-16T05:33:19;35.03;;;15.98;;
20036;SDS011;10179;42.640;23.312;2022-10-16T05:35:49;24.05;;;11.88;;
20036;SDS011;10179;42.640;23.312;2022-10-16T05:38:15;23.35;;;10.05;;
20036;SDS011;10179;42.640;23.312;2022-10-16T05:40:41;15.45;;;8.68;;
20036;SDS011;10179;42.640;23.312;2022-10-16T05:43:07;16.48;;;8.60;;
20036;SDS011;10179;42.640;23.312;2022-10-16T05:45:33;16.55;;;8.00;;
20036;SDS011;10179;42.640;23.312;2022-10-16T05:47:59;15.43;;;8.70;;
20036;SDS011;10179;42.640;23.312;2022-10-16T05:50:24;15.70;;;7.57;;
20036;SDS011;10179;42.640;23.312;2022-10-16T05:52:50;14.80;;;8.35;;
20036;SDS011;10179;42.640;23.312;2022-10-16T05:55:15;14.05;;;7.93;;
20036;SDS011;10179;42.640;23.312;2022-10-16T05:57:41;16.83;;;8.02;;
20036;SDS011;10179;42.640;23.312;2022-10-16T06:00:06;15.05;;;7.63;;
20036;SDS011;10179;42.640;23.312;2022-10-16T06:02:32;14.73;;;8.25;;
20036;SDS011;10179;42.640;23.312;2022-10-16T06:04:57;17.58;;;9.45;;
20036;SDS011;10179;42.640;23.312;2022-10-16T06:07:23;15.70;;;9.45;;
20036;SDS011;10179;42.640;23.312;2022-10-16T06:09:52;19.52;;;9.60;;
20036;SDS011;10179;42.640;23.312;2022-10-16T06:12:18;21.90;;;9.32;;
20036;SDS011;10179;42.640;23.312;2022-10-16T06:14:44;16.80;;;8.52;;
20036;SDS011;10179;42.640;23.312;2022-10-16T06:17:13;17.00;;;9.75;;
20036;SDS011;10179;42.640;23.312;2022-10-16T06:19:39;13.98;;;8.40;;
20036;SDS011;10179;42.640;23.312;2022-10-16T06:22:05;18.35;;;8.90;;
20036;SDS011;10179;42.640;23.312;2022-10-16T06:24:31;14.43;;;8.30;;
20036;SDS011;10179;42.640;23.312;2022-10-16T06:26:56;14.00;;;8.57;;
20036;SDS011;10179;42.640;23.312;2022-10-16T06:29:22;14.35;;;7.88;;
20036;SDS011;10179;42.640;23.312;2022-10-16T06:31:47;13.93;;;8.10;;
20036;SDS011;10179;42.640;23.312;2022-10-16T06:34:12;24.20;;;9.18;;
20036;SDS011;10179;42.640;23.312;2022-10-16T06:36:38;17.17;;;8.40;;
20036;SDS011;10179;42.640;23.312;2022-10-16T06:39:04;14.23;;;8.02;;
20036;SDS011;10179;42.640;23.312;2022-10-16T06:41:32;15.70;;;8.23;;
20036;SDS011;10179;42.640;23.312;2022-10-16T06:43:58;16.90;;;7.88;;
20036;SDS011;10179;42.640;23.312;2022-10-16T06:46:23;12.25;;;7.60;;
20036;SDS011;10179;42.640;23.312;2022-10-16T06:48:50;12.60;;;7.57;;
20036;SDS011;10179;42.640;23.312;2022-10-16T06:51:17;13.95;;;6.68;;
20036;SDS011;10179;42.640;23.312;2022-10-16T06:53:45;18.52;;;7.00;;
20036;SDS011;10179;42.640;23.312;2022-10-16T06:56:19;11.68;;;6.15;;
20036;SDS011;10179;42.640;23.312;2022-10-16T06:58:46;12.88;;;6.18;;
20036;SDS011;10179;42.640;23.312;2022-10-16T07:01:12;7.90;;;4.63;;
20036;SDS011;10179;42.640;23.312;2022-10-16T07:03:39;9.85;;;4.65;;
20036;SDS011;10179;42.640;23.312;2022-10-16T07:06:07;10.90;;;5.40;;
20036;SDS011;10179;42.640;23.312;2022-10-16T07:08:35;8.40;;;4.90;;
20036;SDS011;10179;42.640;23.312;2022-10-16T07:11:06;13.55;;;5.32;;
20036;SDS011;10179;42.640;23.312;2022-10-16T07:13:33;8.02;;;4.85;;
20036;SDS011;10179;42.640;23.312;2022-10-16T07:18:37;8.98;;;3.92;;
20036;SDS011;10179;42.640;23.312;2022-10-16T07:21:08;6.15;;;4.15;;
20036;SDS011;10179;42.640;23.312;2022-10-16T07:23:35;6.15;;;3.83;;
20036;SDS011;10179;42.640;23.312;2022-10-16T07:26:01;6.97;;;4.47;;
20036;SDS011;10179;42.640;23.312;2022-10-16T07:28:26;8.77;;;4.57;;
20036;SDS011;10179;42.640;23.312;2022-10-16T07:30:52;5.70;;;4.32;;
20036;SDS011;10179;42.640;23.312;2022-10-16T07:33:18;10.38;;;4.40;;
20036;SDS011;10179;42.640;23.312;2022-10-16T07:35:47;8.25;;;4.57;;
20036;SDS011;10179;42.640;23.312;2022-10-16T07:40:41;7.47;;;4.07;;
20036;SDS011;10179;42.640;23.312;2022-10-16T07:43:07;6.57;;;3.80;;
20036;SDS011;10179;42.640;23.312;2022-10-16T07:45:32;6.97;;;4.20;;
20036;SDS011;10179;42.640;23.312;2022-10-16T07:47:58;5.70;;;4.07;;
20036;SDS011;10179;42.640;23.312;2022-10-16T07:50:23;8.70;;;4.40;;
20036;SDS011;10179;42.640;23.312;2022-10-16T07:52:48;10.38;;;4.78;;
20036;SDS011;10179;42.640;23.312;2022-10-16T07:55:14;8.35;;;4.60;;
20036;SDS011;10179;42.640;23.312;2022-10-16T07:57:39;6.90;;;4.95;;
20036;SDS011;10179;42.640;23.312;2022-10-16T08:00:05;7.38;;;5.18;;
20036;SDS011;10179;42.640;23.312;2022-10-16T08:02:31;9.65;;;5.18;;
20036;SDS011;10179;42.640;23.312;2022-10-16T08:04:57;16.75;;;5.32;;
20036;SDS011;10179;42.640;23.312;2022-10-16T08:07:22;14.30;;;5.47;;
20036;SDS011;10179;42.640;23.312;2022-10-16T08:09:50;13.13;;;5.80;;
20036;SDS011;10179;42.640;23.312;2022-10-16T08:12:16;10.23;;;5.15;;
20036;SDS011;10179;42.640;23.312;2022-10-16T08:14:42;14.18;;;5.60;;
20036;SDS011;10179;42.640;23.312;2022-10-16T08:17:07;10.65;;;5.90;;
20036;SDS011;10179;42.640;23.312;2022-10-16T08:19:33;10.13;;;6.40;;
20036;SDS011;10179;42.640;23.312;2022-10-16T08:22:00;9.88;;;5.03;;
20036;SDS011;10179;42.640;23.312;2022-10-16T08:24:26;12.38;;;5.45;;
20036;SDS011;10179;42.640;23.312;2022-10-16T08:26:53;10.65;;;4.97;;
20036;SDS011;10179;42.640;23.312;2022-10-16T08:29:19;8.73;;;5.30;;
20036;SDS011;10179;42.640;23.312;2022-10-16T08:31:44;16.48;;;5.55;;
20036;SDS011;10179;42.640;23.312;2022-10-16T08:34:10;14.88;;;5.22;;
20036;SDS011;10179;42.640;23.312;2022-10-16T08:36:35;11.30;;;4.68;;
20036;SDS011;10179;42.640;23.312;2022-10-16T08:39:01;14.15;;;5.15;;
20036;SDS011;10179;42.640;23.312;2022-10-16T08:50:10;19.40;;;5.20;;
20036;SDS011;10179;42.640;23.312;2022-10-16T08:52:39;9.05;;;4.70;;
20036;SDS011;10179;42.640;23.312;2022-10-16T08:55:10;7.30;;;4.30;;
20036;SDS011;10179;42.640;23.312;2022-10-16T08:57:52;8.20;;;4.43;;
20036;SDS011;10179;42.640;23.312;2022-10-16T09:00:17;9.43;;;3.63;;
20036;SDS011;10179;42.640;23.312;2022-10-16T09:10:57;10.85;;;3.33;;
20036;SDS011;10179;42.640;23.312;2022-10-16T09:19:30;6.35;;;3.42;;
20036;SDS011;10179;42.640;23.312;2022-10-16T09:21:56;5.68;;;3.28;;
20036;SDS011;10179;42.640;23.312;2022-10-16T09:24:25;4.85;;;2.83;;
20036;SDS011;10179;42.640;23.312;2022-10-16T09:26:51;5.68;;;2.92;;
20036;SDS011;10179;42.640;23.312;2022-10-16T09:29:17;5.75;;;2.78;;
20036;SDS011;10179;42.640;23.312;2022-10-16T09:31:49;11.00;;;2.90;;
20036;SDS011;10179;42.640;23.312;2022-10-16T09:37:12;4.28;;;2.83;;
20036;SDS011;10179;42.640;23.312;2022-10-16T09:39:46;4.03;;;2.50;;
20036;SDS011;10179;42.640;23.312;2022-10-16T09:42:17;4.65;;;2.60;;
20036;SDS011;10179;42.640;23.312;2022-10-16T09:44:47;4.38;;;2.20;;
20036;SDS011;10179;42.640;23.312;2022-10-16T09:47:16;6.15;;;2.63;;
20036;SDS011;10179;42.640;23.312;2022-10-16T09:49:52;6.10;;;2.78;;
20036;SDS011;10179;42.640;23.312;2022-10-16T09:52:24;5.35;;;2.50;;
20036;SDS011;10179;42.640;23.312;2022-10-16T09:54:51;7.18;;;3.08;;
20036;SDS011;10179;42.640;23.312;2022-10-16T09:57:20;6.05;;;2.78;;
20036;SDS011;10179;42.640;23.312;2022-10-16T09:59:47;4.95;;;2.88;;
20036;SDS011;10179;42.640;23.312;2022-10-16T10:02:14;5.20;;;2.97;;
20036;SDS011;10179;42.640;23.312;2022-10-16T10:04:48;5.90;;;3.45;;
20036;SDS011;10179;42.640;23.312;2022-10-16T10:07:26;6.75;;;3.47;;
20036;SDS011;10179;42.640;23.312;2022-10-16T10:09:54;5.80;;;3.28;;
20036;SDS011;10179;42.640;23.312;2022-10-16T10:12:26;7.75;;;2.70;;
20036;SDS011;10179;42.640;23.312;2022-10-16T10:14:57;5.95;;;3.10;;
20036;SDS011;10179;42.640;23.312;2022-10-16T10:17:28;3.88;;;2.33;;
20036;SDS011;10179;42.640;23.312;2022-10-16T10:36:34;5.40;;;2.47;;
20036;SDS011;10179;42.640;23.312;2022-10-16T10:39:15;4.65;;;2.55;;
20036;SDS011;10179;42.640;23.312;2022-10-16T10:41:51;3.67;;;2.30;;
20036;SDS011;10179;42.640;23.312;2022-10-16T11:03:19;5.47;;;2.70;;
20036;SDS011;10179;42.640;23.312;2022-10-16T11:06:08;3.58;;;2.38;;
20036;SDS011;10179;42.640;23.312;2022-10-16T11:09:23;4.85;;;3.00;;
20036;SDS011;10179;42.640;23.312;2022-10-16T11:11:47;6.28;;;3.20;;
20036;SDS011;10179;42.640;23.312;2022-10-16T11:14:31;6.03;;;2.65;;
20036;SDS011;10179;42.640;23.312;2022-10-16T11:27:16;2.80;;;1.95;;
20036;SDS011;10179;42.640;23.312;2022-10-16T11:29:51;3.78;;;1.90;;
20036;SDS011;10179;42.640;23.312;2022-10-16T11:32:31;4.70;;;1.83;;
20036;SDS011;10179;42.640;23.312;2022-10-16T11:35:28;2.50;;;1.63;;
20036;SDS011;10179;42.640;23.312;2022-10-16T11:38:07;2.97;;;2.00;;
20036;SDS011;10179;42.640;23.312;2022-10-16T11:40:54;4.15;;;1.90;;
20036;SDS011;10179;42.640;23.312;2022-10-16T11:45:57;6.63;;;1.67;;
20036;SDS011;10179;42.640;23.312;2022-10-16T11:51:26;2.97;;;2.30;;
20036;SDS011;10179;42.640;23.312;2022-10-16T11:54:34;3.13;;;1.98;;
20036;SDS011;10179;42.640;23.312;2022-10-16T11:57:01;2.80;;;1.67;;
20036;SDS011;10179;42.640;23.312;2022-10-16T11:59:37;5.43;;;1.90;;
20036;SDS011;10179;42.640;23.312;2022-10-16T12:08:15;2.55;;;1.45;;
20036;SDS011;10179;42.640;23.312;2022-10-16T12:10:45;4.50;;;1.50;;
20036;SDS011;10179;42.640;23.312;2022-10-16T12:18:36;3.15;;;2.05;;
20036;SDS011;10179;42.640;23.312;2022-10-16T12:21:02;4.68;;;2.00;;
20036;SDS011;10179;42.640;23.312;2022-10-16T12:23:36;3.05;;;1.73;;
20036;SDS011;10179;42.640;23.312;2022-10-16T12:26:04;2.97;;;1.83;;
20036;SDS011;10179;42.640;23.312;2022-10-16T12:28:33;3.20;;;1.85;;
20036;SDS011;10179;42.640;23.312;2022-10-16T12:31:00;2.28;;;1.38;;
20036;SDS011;10179;42.640;23.312;2022-10-16T12:36:15;5.53;;;1.85;;
20036;SDS011;10179;42.640;23.312;2022-10-16T12:38:55;2.22;;;1.60;;
20036;SDS011;10179;42.640;23.312;2022-10-16T12:41:27;2.60;;;1.40;;
20036;SDS011;10179;42.640;23.312;2022-10-16T12:43:55;1.58;;;1.30;;
20036;SDS011;10179;42.640;23.312;2022-10-16T12:46:23;1.98;;;1.40;;
20036;SDS011;10179;42.640;23.312;2022-10-16T12:49:17;4.32;;;1.70;;
20036;SDS011;10179;42.640;23.312;2022-10-16T12:51:47;2.85;;;1.42;;
20036;SDS011;10179;42.640;23.312;2022-10-16T13:20:43;3.15;;;1.52;;
20036;SDS011;10179;42.640;23.312;2022-10-16T13:23:15;3.45;;;1.88;;
20036;SDS011;10179;42.640;23.312;2022-10-16T13:28:41;2.97;;;1.90;;
20036;SDS011;10179;42.640;23.312;2022-10-16T13:31:13;3.05;;;2.05;;
20036;SDS011;10179;42.640;23.312;2022-10-16T13:33:45;3.83;;;1.60;;
20036;SDS011;10179;42.640;23.312;2022-10-16T13:41:36;4.32;;;2.20;;
20036;SDS011;10179;42.640;23.312;2022-10-16T13:44:02;4.85;;;2.00;;
20036;SDS011;10179;42.640;23.312;2022-10-16T13:46:28;4.72;;;2.40;;
20036;SDS011;10179;42.640;23.312;2022-10-16T13:49:01;3.17;;;1.90;;
20036;SDS011;10179;42.640;23.312;2022-10-16T13:52:03;2.15;;;1.50;;
20036;SDS011;10179;42.640;23.312;2022-10-16T13:54:28;2.20;;;1.58;;
20036;SDS011;10179;42.640;23.312;2022-10-16T13:56:54;2.58;;;1.80;;
20036;SDS011;10179;42.640;23.312;2022-10-16T13:59:24;3.90;;;1.88;;
20036;SDS011;10179;42.640;23.312;2022-10-16T14:01:52;3.08;;;1.70;;
20036;SDS011;10179;42.640;23.312;2022-10-16T14:04:20;2.50;;;1.48;;
20036;SDS011;10179;42.640;23.312;2022-10-16T14:06:48;2.63;;;1.73;;
20036;SDS011;10179;42.640;23.312;2022-10-16T14:09:28;3.38;;;1.73;;
20036;SDS011;10179;42.640;23.312;2022-10-16T14:11:56;4.25;;;1.73;;
20036;SDS011;10179;42.640;23.312;2022-10-16T14:14:23;3.40;;;1.85;;
20036;SDS011;10179;42.640;23.312;2022-10-16T14:16:50;2.85;;;1.85;;
20036;SDS011;10179;42.640;23.312;2022-10-16T14:19:23;4.90;;;2.40;;
20036;SDS011;10179;42.640;23.312;2022-10-16T14:21:51;7.30;;;3.88;;
20036;SDS011;10179;42.640;23.312;2022-10-16T14:27:01;6.75;;;3.95;;
20036;SDS011;10179;42.640;23.312;2022-10-16T14:29:28;11.27;;;3.10;;
20036;SDS011;10179;42.640;23.312;2022-10-16T14:31:57;7.05;;;3.65;;
20036;SDS011;10179;42.640;23.312;2022-10-16T14:36:49;3.38;;;2.22;;
20036;SDS011;10179;42.640;23.312;2022-10-16T14:39:19;3.58;;;1.85;;
20036;SDS011;10179;42.640;23.312;2022-10-16T14:41:47;5.00;;;2.75;;
20036;SDS011;10179;42.640;23.312;2022-10-16T14:44:14;2.95;;;1.95;;
20036;SDS011;10179;42.640;23.312;2022-10-16T14:46:42;4.80;;;2.28;;
20036;SDS011;10179;42.640;23.312;2022-10-16T14:51:35;6.38;;;2.13;;
20036;SDS011;10179;42.640;23.312;2022-10-16T14:54:01;4.93;;;2.38;;
20036;SDS011;10179;42.640;23.312;2022-10-16T14:56:31;5.05;;;2.13;;
20036;SDS011;10179;42.640;23.312;2022-10-16T14:59:07;5.07;;;2.00;;
20036;SDS011;10179;42.640;23.312;2022-10-16T15:01:39;3.25;;;1.98;;
20036;SDS011;10179;42.640;23.312;2022-10-16T15:04:04;6.03;;;2.05;;
20036;SDS011;10179;42.640;23.312;2022-10-16T15:06:32;7.75;;;1.95;;
20036;SDS011;10179;42.640;23.312;2022-10-16T15:08:57;3.15;;;2.00;;
20036;SDS011;10179;42.640;23.312;2022-10-16T15:11:23;6.22;;;2.10;;
20036;SDS011;10179;42.640;23.312;2022-10-16T15:13:48;5.05;;;1.80;;
20036;SDS011;10179;42.640;23.312;2022-10-16T15:16:15;6.60;;;2.80;;
20036;SDS011;10179;42.640;23.312;2022-10-16T15:18:42;4.93;;;2.92;;
20036;SDS011;10179;42.640;23.312;2022-10-16T15:21:08;11.32;;;4.07;;
20036;SDS011;10179;42.640;23.312;2022-10-16T15:23:43;7.95;;;3.50;;
20036;SDS011;10179;42.640;23.312;2022-10-16T15:26:09;8.38;;;4.82;;
20036;SDS011;10179;42.640;23.312;2022-10-16T15:28:34;11.23;;;5.50;;
20036;SDS011;10179;42.640;23.312;2022-10-16T15:31:00;8.68;;;5.15;;
20036;SDS011;10179;42.640;23.312;2022-10-16T15:33:27;4.05;;;2.63;;
20036;SDS011;10179;42.640;23.312;2022-10-16T15:35:57;12.63;;;6.72;;
20036;SDS011;10179;42.640;23.312;2022-10-16T15:38:23;14.57;;;7.75;;
20036;SDS011;10179;42.640;23.312;2022-10-16T15:40:49;10.32;;;6.00;;
20036;SDS011;10179;42.640;23.312;2022-10-16T15:43:15;13.27;;;5.95;;
20036;SDS011;10179;42.640;23.312;2022-10-16T15:45:41;14.63;;;8.48;;
20036;SDS011;10179;42.640;23.312;2022-10-16T15:48:09;13.98;;;6.80;;
20036;SDS011;10179;42.640;23.312;2022-10-16T15:50:36;12.82;;;7.78;;
20036;SDS011;10179;42.640;23.312;2022-10-16T15:53:02;13.93;;;7.03;;
20036;SDS011;10179;42.640;23.312;2022-10-16T15:55:28;18.55;;;7.75;;
20036;SDS011;10179;42.640;23.312;2022-10-16T15:57:53;12.35;;;6.22;;
20036;SDS011;10179;42.640;23.312;2022-10-16T16:00:19;9.55;;;6.38;;
20036;SDS011;10179;42.640;23.312;2022-10-16T16:02:51;10.15;;;6.45;;
20036;SDS011;10179;42.640;23.312;2022-10-16T16:05:18;13.05;;;6.20;;
20036;SDS011;10179;42.640;23.312;2022-10-16T16:07:45;12.88;;;5.88;;
20036;SDS011;10179;42.640;23.312;2022-10-16T16:10:11;10.15;;;5.63;;
20036;SDS011;10179;42.640;23.312;2022-10-16T16:12:36;9.45;;;5.20;;
20036;SDS011;10179;42.640;23.312;2022-10-16T16:15:03;11.10;;;5.22;;
20036;SDS011;10179;42.640;23.312;2022-10-16T16:17:31;9.15;;;4.90;;
20036;SDS011;10179;42.640;23.312;2022-10-16T16:19:57;9.95;;;4.78;;
20036;SDS011;10179;42.640;23.312;2022-10-16T16:22:23;9.57;;;4.53;;
20036;SDS011;10179;42.640;23.312;2022-10-16T16:24:48;7.70;;;4.15;;
20036;SDS011;10179;42.640;23.312;2022-10-16T16:27:14;9.93;;;4.28;;
20036;SDS011;10179;42.640;23.312;2022-10-16T16:29:39;6.35;;;3.85;;
20036;SDS011;10179;42.640;23.312;2022-10-16T16:32:05;6.65;;;3.40;;
20036;SDS011;10179;42.640;23.312;2022-10-16T16:34:31;8.65;;;4.15;;
20036;SDS011;10179;42.640;23.312;2022-10-16T16:36:56;8.35;;;3.88;;
20036;SDS011;10179;42.640;23.312;2022-10-16T16:39:22;9.07;;;3.90;;
20036;SDS011;10179;42.640;23.312;2022-10-16T16:41:47;11.85;;;4.05;;
20036;SDS011;10179;42.640;23.312;2022-10-16T16:44:13;6.35;;;3.90;;
20036;SDS011;10179;42.640;23.312;2022-10-16T16:46:40;7.07;;;4.05;;
20036;SDS011;10179;42.640;23.312;2022-10-16T16:49:08;12.50;;;5.63;;
20036;SDS011;10179;42.640;23.312;2022-10-16T16:51:35;6.65;;;4.57;;
20036;SDS011;10179;42.640;23.312;2022-10-16T16:54:01;7.82;;;4.43;;
20036;SDS011;10179;42.640;23.312;2022-10-16T16:56:26;16.13;;;5.03;;
20036;SDS011;10179;42.640;23.312;2022-10-16T16:58:53;8.85;;;5.05;;
20036;SDS011;10179;42.640;23.312;2022-10-16T17:01:20;10.15;;;4.80;;
20036;SDS011;10179;42.640;23.312;2022-10-16T17:03:48;6.38;;;4.53;;
20036;SDS011;10179;42.640;23.312;2022-10-16T17:06:16;8.50;;;5.05;;
20036;SDS011;10179;42.640;23.312;2022-10-16T17:08:43;6.63;;;3.90;;
20036;SDS011;10179;42.640;23.312;2022-10-16T17:11:13;6.95;;;4.43;;
20036;SDS011;10179;42.640;23.312;2022-10-16T17:13:39;9.73;;;5.18;;
20036;SDS011;10179;42.640;23.312;2022-10-16T17:16:05;8.52;;;4.45;;